This is the latest recevied weather packets stored in our database for station/object IR1CH-3. If no packets are shown the sender has not sent any weather packets the latest 10 day(s).
| Time | Temp. | Humidity | Pressure | Rain* | Wind** | Luminosity | Snow |
|---|---|---|---|---|---|---|---|
| 1777295420 | 16.67° C | 99% | 1018.7 hPa | - | - | - | - |
| 1777293620 | 17.22° C | 99% | 1018.9 hPa | - | - | - | - |
| 1777291820 | 18.89° C | 91% | 1018.8 hPa | - | - | - | - |
| 1777290019 | 18.89° C | 88% | 1019.1 hPa | - | - | - | - |
| 1777288219 | 18.33° C | 88% | 1019.3 hPa | - | - | - | - |
| 1777286418 | 20° C | 81% | 1019.5 hPa | - | - | - | - |
| 1777284618 | 20° C | 84% | 1019.5 hPa | - | - | - | - |
| 1777282818 | 18.89° C | 89% | 1019.7 hPa | - | - | - | - |
| 1777281018 | 18.33° C | 91% | 1019.9 hPa | - | - | - | - |
| 1777279217 | 17.22° C | 97% | 1020.1 hPa | - | - | - | - |
| 1777277417 | 17.22° C | 93% | 1019.8 hPa | - | - | - | - |
| 1777275617 | 16.67° C | 95% | 1019.7 hPa | - | - | - | - |
| 1777273816 | 16.67° C | 90% | 1019.6 hPa | - | - | - | - |
| 1777272016 | 16.11° C | 92% | 1019.7 hPa | - | - | - | - |
| 1777270216 | 16.11° C | 87% | 1019.6 hPa | - | - | - | - |
| 1777268415 | 16.67° C | 83% | 1019.3 hPa | - | - | - | - |
| 1777266615 | 16.67° C | 88% | 1019.1 hPa | - | - | - | - |
| 1777264815 | 14.44° C | 97% | 1019.2 hPa | - | - | - | - |
| 1777263014 | 14.44° C | 97% | 1018.9 hPa | - | - | - | - |
| 1777261214 | 13.89° C | 98% | 1019 hPa | - | - | - | - |
| 1777259414 | 13.89° C | 98% | 1019 hPa | - | - | - | - |
| 1777257613 | 13.89° C | 98% | 1018.9 hPa | - | - | - | - |
| 1777255813 | 14.44° C | 97% | 1018.8 hPa | - | - | - | - |
| 1777254013 | 14.44° C | 95% | 1018.8 hPa | - | - | - | - |
| 1777252212 | 14.44° C | 94% | 1019 hPa | - | - | - | - |
* Rain since midnight (hover to see other rain measurements)
** Current wind speed in m/s (hover to see current wind gust speed)